PWSweather.com
Personal Weather Stations
Station Observations
COONRAPIDS
Minneapolis, MN 55433

Minneapolis, MN 55433

Lat: 45.187721, Lon: -93.36828

Elevation: 898

Station Type: Davis Vantage Pro 2

High Low Average
Temperature 42.2°F5.7°C 26.3°F-3.2°C 34.2°F1.2°C
Dew Point 30.7°F-0.7°C 23.0°F-5.0°C 27.1°F-2.7°C
Winds 3.5 mph 5.6 kmh Calm Calm Calm SWCalm SW
Wind Gusts 10.4 mph16.7 kmh -- 1.0 mph1.6 kmh
Humidity 88% 60% 76%
Pressure 29.75 in1007.5 mb 29.48 in998.3 mb -
Precipitation 0.01 in0.3 mm - -
Hour Temp Dew Point Humidity Winds Wind Gusts Pressure Precip Precip Rate Daily Precip Total
12:00 AM 26.3°F-3.2°C 23.0°F-5.0°C 87% Calm Calm -- 29.74 in1007.1 mb - 0.00 in0.0 mm 0.00 in0.0 mm
12:10 AM 27.3°F-2.6°C 23.9°F-4.5°C 87% Calm Calm -- 29.75 in1007.5 mb - 0.00 in0.0 mm 0.00 in0.0 mm
12:20 AM 28.6°F-1.9°C 25.5°F-3.6°C 88% Calm Calm -- 29.74 in1007.1 mb - 0.00 in0.0 mm 0.00 in0.0 mm
12:30 AM 29.2°F-1.6°C 25.8°F-3.4°C 87% Calm Calm -- 29.74 in1007.1 mb - 0.00 in0.0 mm 0.00 in0.0 mm
12:40 AM 29.2°F-1.6°C 25.5°F-3.6°C 86% Calm Calm -- 29.74 in1007.1 mb - 0.00 in0.0 mm 0.00 in0.0 mm
12:50 AM 29.1°F-1.6°C 25.5°F-3.6°C 86% Calm Calm -- 29.73 in1006.8 mb - 0.00 in0.0 mm 0.00 in0.0 mm
01:00 AM 29.3°F-1.5°C 25.3°F-3.7°C 85% Calm Calm -- 29.74 in1007.1 mb - 0.00 in0.0 mm 0.00 in0.0 mm
01:10 AM 28.9°F-1.7°C 25.0°F-3.9°C 85% Calm Calm -- 29.73 in1006.8 mb - 0.00 in0.0 mm 0.00 in0.0 mm
01:20 AM 29.1°F-1.6°C 25.2°F-3.8°C 85% Calm Calm -- 29.73 in1006.8 mb - 0.00 in0.0 mm 0.00 in0.0 mm
01:30 AM 29.0°F-1.7°C 25.1°F-3.8°C 85% Calm Calm -- 29.72 in1006.4 mb - 0.00 in0.0 mm 0.00 in0.0 mm
01:40 AM 28.6°F-1.9°C 24.4°F-4.2°C 84% Calm Calm -- 29.72 in1006.4 mb - 0.00 in0.0 mm 0.00 in0.0 mm
01:50 AM 28.1°F-2.2°C 24.2°F-4.3°C 85% Calm Calm -- 29.71 in1006.1 mb - 0.00 in0.0 mm 0.00 in0.0 mm
02:00 AM 27.9°F-2.3°C 24.0°F-4.4°C 85% Calm Calm -- 29.72 in1006.4 mb - 0.00 in0.0 mm 0.00 in0.0 mm
02:10 AM 27.7°F-2.4°C 23.7°F-4.6°C 85% Calm Calm -- 29.71 in1006.1 mb - 0.00 in0.0 mm 0.00 in0.0 mm
02:20 AM 27.4°F-2.6°C 23.5°F-4.7°C 85% Calm Calm -- 29.71 in1006.1 mb - 0.00 in0.0 mm 0.00 in0.0 mm
02:30 AM 27.8°F-2.3°C 24.2°F-4.3°C 86% Calm Calm -- 29.72 in1006.4 mb - 0.00 in0.0 mm 0.00 in0.0 mm
02:40 AM 28.5°F-1.9°C 24.8°F-4.0°C 86% Calm Calm -- 29.71 in1006.1 mb - 0.00 in0.0 mm 0.00 in0.0 mm
02:50 AM 29.3°F-1.5°C 25.6°F-3.6°C 86% Calm Calm -- 29.71 in1006.1 mb - 0.00 in0.0 mm 0.00 in0.0 mm
03:00 AM 29.9°F-1.2°C 25.9°F-3.4°C 85% Calm Calm 3.5 mph5.6 kmh 29.71 in1006.1 mb - 0.00 in0.0 mm 0.00 in0.0 mm
03:10 AM 30.5°F-0.8°C 26.3°F-3.2°C 84% Calm Calm -- 29.70 in1005.8 mb - 0.00 in0.0 mm 0.00 in0.0 mm
03:20 AM 30.6°F-0.8°C 26.1°F-3.3°C 83% Calm Calm -- 29.70 in1005.8 mb - 0.00 in0.0 mm 0.00 in0.0 mm
03:30 AM 30.5°F-0.8°C 26.0°F-3.3°C 83% Calm Calm -- 29.70 in1005.8 mb - 0.00 in0.0 mm 0.00 in0.0 mm
03:40 AM 30.5°F-0.8°C 26.0°F-3.3°C 83% Calm Calm -- 29.70 in1005.8 mb - 0.00 in0.0 mm 0.00 in0.0 mm
03:50 AM 30.6°F-0.8°C 26.1°F-3.3°C 83% Calm Calm -- 29.68 in1005.1 mb - 0.00 in0.0 mm 0.00 in0.0 mm
04:00 AM 30.9°F-0.6°C 26.1°F-3.3°C 82% Calm Calm 1.2 mph1.9 kmh 29.68 in1005.1 mb - 0.00 in0.0 mm 0.00 in0.0 mm
04:10 AM 30.9°F-0.6°C 26.1°F-3.3°C 82% Calm Calm -- 29.68 in1005.1 mb - 0.00 in0.0 mm 0.00 in0.0 mm
04:20 AM 30.8°F-0.7°C 26.0°F-3.3°C 82% Calm Calm -- 29.67 in1004.7 mb - 0.00 in0.0 mm 0.00 in0.0 mm
04:30 AM 30.9°F-0.6°C 26.0°F-3.3°C 82% Calm Calm -- 29.67 in1004.7 mb - 0.00 in0.0 mm 0.00 in0.0 mm
04:40 AM 31.1°F-0.5°C 26.2°F-3.2°C 82% 1.2 mph S1.9 kmh S 3.5 mph5.6 kmh 29.67 in1004.7 mb - 0.00 in0.0 mm 0.00 in0.0 mm
04:50 AM 31.2°F-0.4°C 26.0°F-3.3°C 81% Calm Calm -- 29.66 in1004.4 mb - 0.00 in0.0 mm 0.00 in0.0 mm
05:00 AM 30.8°F-0.7°C 25.7°F-3.5°C 81% Calm Calm -- 29.65 in1004.1 mb - 0.00 in0.0 mm 0.00 in0.0 mm
05:10 AM 30.7°F-0.7°C 25.9°F-3.4°C 82% Calm Calm -- 29.65 in1004.1 mb - 0.00 in0.0 mm 0.00 in0.0 mm
05:20 AM 30.6°F-0.8°C 25.4°F-3.7°C 81% Calm Calm -- 29.65 in1004.1 mb - 0.00 in0.0 mm 0.00 in0.0 mm
05:30 AM 30.0°F-1.1°C 24.9°F-3.9°C 81% Calm Calm -- 29.65 in1004.1 mb - 0.00 in0.0 mm 0.00 in0.0 mm
05:40 AM 29.8°F-1.2°C 25.0°F-3.9°C 82% Calm Calm -- 29.65 in1004.1 mb - 0.00 in0.0 mm 0.00 in0.0 mm
05:50 AM 29.7°F-1.3°C 25.2°F-3.8°C 83% Calm Calm -- 29.64 in1003.7 mb - 0.00 in0.0 mm 0.00 in0.0 mm
06:00 AM 30.0°F-1.1°C 25.4°F-3.7°C 83% Calm Calm -- 29.64 in1003.7 mb - 0.00 in0.0 mm 0.00 in0.0 mm
06:10 AM 30.1°F-1.1°C 25.3°F-3.7°C 82% Calm Calm -- 29.64 in1003.7 mb - 0.00 in0.0 mm 0.00 in0.0 mm
06:20 AM 30.1°F-1.1°C 25.3°F-3.7°C 82% Calm Calm -- 29.63 in1003.4 mb - 0.00 in0.0 mm 0.00 in0.0 mm
06:30 AM 30.2°F-1.0°C 25.4°F-3.7°C 82% Calm Calm -- 29.62 in1003.0 mb - 0.00 in0.0 mm 0.00 in0.0 mm
06:40 AM 30.2°F-1.0°C 25.4°F-3.7°C 82% Calm Calm -- 29.62 in1003.0 mb - 0.00 in0.0 mm 0.00 in0.0 mm
06:50 AM 30.2°F-1.0°C 25.1°F-3.8°C 81% Calm Calm -- 29.62 in1003.0 mb - 0.00 in0.0 mm 0.00 in0.0 mm
07:00 AM 30.1°F-1.1°C 25.0°F-3.9°C 81% Calm Calm -- 29.61 in1002.7 mb - 0.00 in0.0 mm 0.00 in0.0 mm
07:10 AM 30.1°F-1.1°C 24.9°F-3.9°C 81% Calm Calm -- 29.61 in1002.7 mb - 0.00 in0.0 mm 0.00 in0.0 mm
07:20 AM 30.0°F-1.1°C 24.9°F-3.9°C 81% Calm Calm -- 29.61 in1002.7 mb - 0.00 in0.0 mm 0.00 in0.0 mm
07:30 AM 29.8°F-1.2°C 24.7°F-4.1°C 81% Calm Calm -- 29.60 in1002.4 mb - 0.00 in0.0 mm 0.00 in0.0 mm
07:40 AM 29.7°F-1.3°C 24.9°F-3.9°C 82% Calm Calm -- 29.60 in1002.4 mb - 0.00 in0.0 mm 0.00 in0.0 mm
07:50 AM 29.7°F-1.3°C 24.6°F-4.1°C 81% Calm Calm -- 29.60 in1002.4 mb - 0.00 in0.0 mm 0.00 in0.0 mm
08:00 AM 29.7°F-1.3°C 24.9°F-3.9°C 82% Calm Calm -- 29.60 in1002.4 mb - 0.00 in0.0 mm 0.00 in0.0 mm
08:10 AM 29.8°F-1.2°C 25.0°F-3.9°C 82% Calm Calm -- 29.60 in1002.4 mb - 0.00 in0.0 mm 0.00 in0.0 mm
08:20 AM 30.0°F-1.1°C 25.2°F-3.8°C 82% Calm Calm -- 29.59 in1002.0 mb - 0.00 in0.0 mm 0.00 in0.0 mm
08:30 AM 30.3°F-0.9°C 25.2°F-3.8°C 81% Calm Calm -- 29.59 in1002.0 mb - 0.00 in0.0 mm 0.00 in0.0 mm
08:40 AM 30.7°F-0.7°C 25.3°F-3.7°C 80% Calm Calm -- 29.59 in1002.0 mb - 0.00 in0.0 mm 0.00 in0.0 mm
08:50 AM 31.1°F-0.5°C 25.3°F-3.7°C 79% Calm Calm -- 29.59 in1002.0 mb - 0.00 in0.0 mm 0.00 in0.0 mm
09:00 AM 31.5°F-0.3°C 25.7°F-3.5°C 79% Calm Calm -- 29.58 in1001.7 mb - 0.00 in0.0 mm 0.00 in0.0 mm
09:10 AM 31.9°F-0.1°C 25.8°F-3.4°C 78% Calm Calm -- 29.58 in1001.7 mb - 0.00 in0.0 mm 0.00 in0.0 mm
09:20 AM 32.3°F0.2°C 25.9°F-3.4°C 77% Calm Calm -- 29.58 in1001.7 mb - 0.00 in0.0 mm 0.00 in0.0 mm
09:30 AM 32.8°F0.4°C 26.1°F-3.3°C 76% Calm Calm -- 29.57 in1001.4 mb - 0.00 in0.0 mm 0.00 in0.0 mm
09:40 AM 33.3°F0.7°C 25.9°F-3.4°C 74% Calm Calm -- 29.57 in1001.4 mb - 0.00 in0.0 mm 0.00 in0.0 mm
09:50 AM 33.7°F0.9°C 26.0°F-3.3°C 73% Calm Calm -- 29.57 in1001.4 mb - 0.00 in0.0 mm 0.00 in0.0 mm
10:00 AM 34.3°F1.3°C 26.2°F-3.2°C 72% Calm Calm -- 29.58 in1001.7 mb - 0.00 in0.0 mm 0.00 in0.0 mm
10:10 AM 34.8°F1.6°C 26.3°F-3.2°C 71% Calm Calm -- 29.58 in1001.7 mb - 0.00 in0.0 mm 0.00 in0.0 mm
10:20 AM 35.0°F1.7°C 26.2°F-3.2°C 70% Calm Calm -- 29.58 in1001.7 mb - 0.00 in0.0 mm 0.00 in0.0 mm
10:30 AM 35.2°F1.8°C 26.0°F-3.3°C 69% Calm Calm -- 29.57 in1001.4 mb - 0.00 in0.0 mm 0.00 in0.0 mm
10:40 AM 35.3°F1.8°C 25.8°F-3.4°C 68% Calm Calm -- 29.56 in1001.0 mb - 0.00 in0.0 mm 0.00 in0.0 mm
10:50 AM 35.6°F2.0°C 25.7°F-3.5°C 67% Calm Calm -- 29.56 in1001.0 mb - 0.00 in0.0 mm 0.00 in0.0 mm
11:00 AM 35.9°F2.2°C 26.0°F-3.3°C 67% Calm Calm -- 29.55 in1000.7 mb - 0.00 in0.0 mm 0.00 in0.0 mm
11:10 AM 36.2°F2.3°C 25.9°F-3.4°C 66% Calm Calm -- 29.54 in1000.3 mb - 0.00 in0.0 mm 0.00 in0.0 mm
11:20 AM 36.7°F2.6°C 26.0°F-3.3°C 65% Calm Calm -- 29.54 in1000.3 mb - 0.01 in0.3 mm 0.01 in0.3 mm
11:30 AM 37.1°F2.8°C 26.1°F-3.3°C 64% Calm Calm 2.3 mph3.7 kmh 29.52 in999.7 mb - 0.00 in0.0 mm 0.01 in0.3 mm
11:40 AM 37.8°F3.2°C 26.7°F-2.9°C 64% Calm Calm 4.6 mph7.4 kmh 29.52 in999.7 mb - 0.00 in0.0 mm 0.01 in0.3 mm
11:50 AM 38.3°F3.5°C 26.8°F-2.9°C 63% Calm Calm -- 29.52 in999.7 mb - 0.00 in0.0 mm 0.01 in0.3 mm
12:00 PM 39.0°F3.9°C 27.0°F-2.8°C 62% Calm Calm 3.5 mph5.6 kmh 29.51 in999.3 mb - 0.00 in0.0 mm 0.01 in0.3 mm
12:10 PM 39.5°F4.2°C 27.2°F-2.7°C 61% 3.5 mph S5.6 kmh S 3.5 mph5.6 kmh 29.50 in999.0 mb - 0.00 in0.0 mm 0.01 in0.3 mm
12:20 PM 39.8°F4.3°C 27.0°F-2.8°C 60% 1.2 mph S1.9 kmh S 6.9 mph11.1 kmh 29.49 in998.6 mb - 0.00 in0.0 mm 0.01 in0.3 mm
12:30 PM 39.9°F4.4°C 27.1°F-2.7°C 60% Calm Calm 2.3 mph3.7 kmh 29.48 in998.3 mb - 0.00 in0.0 mm 0.01 in0.3 mm
12:40 PM 40.1°F4.5°C 27.3°F-2.6°C 60% 2.3 mph SW3.7 kmh SW 10.4 mph16.7 kmh 29.49 in998.6 mb - 0.00 in0.0 mm 0.01 in0.3 mm
12:50 PM 40.0°F4.4°C 27.2°F-2.7°C 60% 2.3 mph SW3.7 kmh SW 9.2 mph14.8 kmh 29.51 in999.3 mb - 0.00 in0.0 mm 0.01 in0.3 mm
01:00 PM 40.2°F4.6°C 27.8°F-2.3°C 61% 3.5 mph SW5.6 kmh SW 4.6 mph7.4 kmh 29.50 in999.0 mb - 0.00 in0.0 mm 0.01 in0.3 mm
01:10 PM 40.5°F4.7°C 27.7°F-2.4°C 60% 2.3 mph SW3.7 kmh SW 5.8 mph9.3 kmh 29.50 in999.0 mb - 0.00 in0.0 mm 0.01 in0.3 mm
01:20 PM 40.6°F4.8°C 27.8°F-2.3°C 60% 2.3 mph W3.7 kmh W 3.5 mph5.6 kmh 29.50 in999.0 mb - 0.00 in0.0 mm 0.01 in0.3 mm
01:30 PM 41.0°F5.0°C 28.1°F-2.2°C 60% Calm Calm 3.5 mph5.6 kmh 29.49 in998.6 mb - 0.00 in0.0 mm 0.01 in0.3 mm
01:40 PM 40.9°F4.9°C 28.5°F-1.9°C 61% Calm Calm 3.5 mph5.6 kmh 29.48 in998.3 mb - 0.00 in0.0 mm 0.01 in0.3 mm
01:50 PM 41.1°F5.1°C 28.7°F-1.8°C 61% 2.3 mph SW3.7 kmh SW 5.8 mph9.3 kmh 29.49 in998.6 mb - 0.00 in0.0 mm 0.01 in0.3 mm
02:00 PM 41.3°F5.2°C 28.9°F-1.7°C 61% Calm Calm -- 29.50 in999.0 mb - 0.00 in0.0 mm 0.01 in0.3 mm
02:10 PM 41.3°F5.2°C 28.9°F-1.7°C 61% 2.3 mph SW3.7 kmh SW 6.9 mph11.1 kmh 29.50 in999.0 mb - 0.00 in0.0 mm 0.01 in0.3 mm
02:20 PM 41.3°F5.2°C 29.3°F-1.5°C 62% 3.5 mph WSW5.6 kmh WSW 5.8 mph9.3 kmh 29.50 in999.0 mb - 0.00 in0.0 mm 0.01 in0.3 mm
02:30 PM 40.9°F4.9°C 29.3°F-1.5°C 63% 1.2 mph WSW1.9 kmh WSW 9.2 mph14.8 kmh 29.50 in999.0 mb - 0.00 in0.0 mm 0.01 in0.3 mm
02:40 PM 41.2°F5.1°C 29.5°F-1.4°C 63% 2.3 mph WSW3.7 kmh WSW 5.8 mph9.3 kmh 29.50 in999.0 mb - 0.00 in0.0 mm 0.01 in0.3 mm
02:50 PM 42.0°F5.6°C 29.9°F-1.2°C 62% Calm Calm -- 29.50 in999.0 mb - 0.00 in0.0 mm 0.01 in0.3 mm
03:00 PM 42.1°F5.6°C 30.0°F-1.1°C 62% Calm Calm -- 29.50 in999.0 mb - 0.00 in0.0 mm 0.01 in0.3 mm
03:10 PM 42.2°F5.7°C 30.1°F-1.1°C 62% 1.2 mph SW1.9 kmh SW 1.2 mph1.9 kmh 29.50 in999.0 mb - 0.00 in0.0 mm 0.01 in0.3 mm
03:20 PM 41.8°F5.4°C 29.7°F-1.3°C 62% 3.5 mph WSW5.6 kmh WSW 3.5 mph5.6 kmh 29.50 in999.0 mb - 0.00 in0.0 mm 0.01 in0.3 mm
03:30 PM 41.7°F5.4°C 30.0°F-1.1°C 63% Calm Calm -- 29.51 in999.3 mb - 0.00 in0.0 mm 0.01 in0.3 mm
03:40 PM 41.7°F5.4°C 30.4°F-0.9°C 64% Calm Calm -- 29.51 in999.3 mb - 0.00 in0.0 mm 0.01 in0.3 mm
03:50 PM 41.8°F5.4°C 30.5°F-0.8°C 64% Calm Calm 1.2 mph1.9 kmh 29.51 in999.3 mb - 0.00 in0.0 mm 0.01 in0.3 mm
04:00 PM 41.8°F5.4°C 30.5°F-0.8°C 64% 1.2 mph WSW1.9 kmh WSW 3.5 mph5.6 kmh 29.52 in999.7 mb - 0.00 in0.0 mm 0.01 in0.3 mm
04:10 PM 41.8°F5.4°C 30.5°F-0.8°C 64% 2.3 mph WSW3.7 kmh WSW 2.3 mph3.7 kmh 29.52 in999.7 mb - 0.00 in0.0 mm 0.01 in0.3 mm
04:20 PM 41.8°F5.4°C 30.5°F-0.8°C 64% Calm Calm -- 29.53 in1000.0 mb - 0.00 in0.0 mm 0.01 in0.3 mm
04:30 PM 41.5°F5.3°C 30.6°F-0.8°C 65% 1.2 mph WSW1.9 kmh WSW 3.5 mph5.6 kmh 29.53 in1000.0 mb - 0.00 in0.0 mm 0.01 in0.3 mm
04:40 PM 41.2°F5.1°C 30.7°F-0.7°C 66% Calm Calm -- 29.54 in1000.3 mb - 0.00 in0.0 mm 0.01 in0.3 mm
04:50 PM 40.5°F4.7°C 30.4°F-0.9°C 67% Calm Calm -- 29.54 in1000.3 mb - 0.00 in0.0 mm 0.01 in0.3 mm
05:00 PM 39.6°F4.2°C 29.9°F-1.2°C 68% Calm Calm -- 29.55 in1000.7 mb - 0.00 in0.0 mm 0.01 in0.3 mm
05:10 PM 38.5°F3.6°C 29.6°F-1.3°C 70% Calm Calm -- 29.55 in1000.7 mb - 0.00 in0.0 mm 0.01 in0.3 mm
05:20 PM 37.7°F3.2°C 29.5°F-1.4°C 72% Calm Calm -- 29.56 in1001.0 mb - 0.00 in0.0 mm 0.01 in0.3 mm
05:30 PM 37.0°F2.8°C 29.5°F-1.4°C 74% Calm Calm -- 29.57 in1001.4 mb - 0.00 in0.0 mm 0.01 in0.3 mm
05:40 PM 36.2°F2.3°C 29.0°F-1.7°C 75% Calm Calm -- 29.57 in1001.4 mb - 0.00 in0.0 mm 0.01 in0.3 mm
05:50 PM 35.5°F1.9°C 28.6°F-1.9°C 76% Calm Calm -- 29.58 in1001.7 mb - 0.00 in0.0 mm 0.01 in0.3 mm
06:00 PM 34.7°F1.5°C 27.9°F-2.3°C 76% Calm Calm -- 29.58 in1001.7 mb - 0.00 in0.0 mm 0.01 in0.3 mm
06:10 PM 33.9°F1.1°C 27.8°F-2.3°C 78% Calm Calm -- 29.58 in1001.7 mb - 0.00 in0.0 mm 0.01 in0.3 mm
06:20 PM 33.2°F0.7°C 27.4°F-2.6°C 79% Calm Calm -- 29.58 in1001.7 mb - 0.00 in0.0 mm 0.01 in0.3 mm
06:30 PM 32.7°F0.4°C 27.2°F-2.7°C 80% Calm Calm -- 29.59 in1002.0 mb - 0.00 in0.0 mm 0.01 in0.3 mm
06:40 PM 32.1°F0.1°C 26.9°F-2.8°C 81% Calm Calm -- 29.59 in1002.0 mb - 0.00 in0.0 mm 0.01 in0.3 mm
06:50 PM 31.6°F-0.2°C 26.4°F-3.1°C 81% Calm Calm -- 29.59 in1002.0 mb - 0.00 in0.0 mm 0.01 in0.3 mm
07:00 PM 31.2°F-0.4°C 26.4°F-3.1°C 82% Calm Calm -- 29.59 in1002.0 mb - 0.00 in0.0 mm 0.01 in0.3 mm
07:10 PM 32.5°F0.3°C 28.2°F-2.1°C 84% Calm Calm -- 29.59 in1002.0 mb - 0.00 in0.0 mm 0.01 in0.3 mm
07:20 PM 33.9°F1.1°C 29.6°F-1.3°C 84% Calm Calm -- 29.60 in1002.4 mb - 0.00 in0.0 mm 0.01 in0.3 mm
07:30 PM 34.4°F1.3°C 29.8°F-1.2°C 83% Calm Calm -- 29.60 in1002.4 mb - 0.00 in0.0 mm 0.01 in0.3 mm
07:40 PM 35.5°F1.9°C 30.2°F-1.0°C 81% Calm Calm -- 29.61 in1002.7 mb - 0.00 in0.0 mm 0.01 in0.3 mm
07:50 PM 35.9°F2.2°C 30.0°F-1.1°C 79% Calm Calm -- 29.61 in1002.7 mb - 0.00 in0.0 mm 0.01 in0.3 mm
08:00 PM 36.1°F2.3°C 29.9°F-1.2°C 78% Calm Calm -- 29.61 in1002.7 mb - 0.00 in0.0 mm 0.01 in0.3 mm
08:10 PM 35.7°F2.1°C 29.5°F-1.4°C 78% Calm Calm -- 29.63 in1003.4 mb - 0.00 in0.0 mm 0.01 in0.3 mm
08:20 PM 35.4°F1.9°C 29.5°F-1.4°C 79% Calm Calm -- 29.64 in1003.7 mb - 0.00 in0.0 mm 0.01 in0.3 mm
08:30 PM 35.7°F2.1°C 29.5°F-1.4°C 78% Calm Calm -- 29.64 in1003.7 mb - 0.00 in0.0 mm 0.01 in0.3 mm
08:40 PM 35.8°F2.1°C 29.6°F-1.3°C 78% Calm Calm 3.5 mph5.6 kmh 29.64 in1003.7 mb - 0.00 in0.0 mm 0.01 in0.3 mm
08:50 PM 35.9°F2.2°C 29.7°F-1.3°C 78% Calm Calm -- 29.65 in1004.1 mb - 0.00 in0.0 mm 0.01 in0.3 mm
09:00 PM 35.7°F2.1°C 29.2°F-1.6°C 77% Calm Calm -- 29.66 in1004.4 mb - 0.00 in0.0 mm 0.01 in0.3 mm
09:10 PM 35.2°F1.8°C 28.7°F-1.8°C 77% Calm Calm -- 29.65 in1004.1 mb - 0.00 in0.0 mm 0.01 in0.3 mm
09:20 PM 34.9°F1.6°C 28.7°F-1.8°C 78% Calm Calm -- 29.66 in1004.4 mb - 0.00 in0.0 mm 0.01 in0.3 mm
09:30 PM 34.9°F1.6°C 28.7°F-1.8°C 78% Calm Calm -- 29.66 in1004.4 mb - 0.00 in0.0 mm 0.01 in0.3 mm
09:40 PM 35.1°F1.7°C 28.6°F-1.9°C 77% Calm Calm -- 29.67 in1004.7 mb - 0.00 in0.0 mm 0.01 in0.3 mm
09:50 PM 35.2°F1.8°C 28.7°F-1.8°C 77% Calm Calm -- 29.67 in1004.7 mb - 0.00 in0.0 mm 0.01 in0.3 mm
10:00 PM 35.1°F1.7°C 28.6°F-1.9°C 77% 1.2 mph W1.9 kmh W 3.5 mph5.6 kmh 29.67 in1004.7 mb - 0.00 in0.0 mm 0.01 in0.3 mm
10:10 PM 34.9°F1.6°C 28.4°F-2.0°C 77% Calm Calm -- 29.68 in1005.1 mb - 0.00 in0.0 mm 0.01 in0.3 mm
10:20 PM 35.1°F1.7°C 28.6°F-1.9°C 77% Calm Calm -- 29.68 in1005.1 mb - 0.00 in0.0 mm 0.01 in0.3 mm
10:30 PM 35.2°F1.8°C 28.7°F-1.8°C 77% 1.2 mph WSW1.9 kmh WSW 3.5 mph5.6 kmh 29.68 in1005.1 mb - 0.00 in0.0 mm 0.01 in0.3 mm
10:40 PM 35.1°F1.7°C 28.6°F-1.9°C 77% Calm Calm -- 29.68 in1005.1 mb - 0.00 in0.0 mm 0.01 in0.3 mm
10:50 PM 34.6°F1.4°C 28.1°F-2.2°C 77% Calm Calm 2.3 mph3.7 kmh 29.69 in1005.4 mb - 0.00 in0.0 mm 0.01 in0.3 mm
11:00 PM 34.1°F1.2°C 27.6°F-2.4°C 77% Calm Calm -- 29.70 in1005.8 mb - 0.00 in0.0 mm 0.01 in0.3 mm
11:10 PM 33.5°F0.8°C 27.4°F-2.6°C 78% Calm Calm -- 29.70 in1005.8 mb - 0.00 in0.0 mm 0.01 in0.3 mm
11:20 PM 33.2°F0.7°C 27.4°F-2.6°C 79% Calm Calm -- 29.71 in1006.1 mb - 0.00 in0.0 mm 0.01 in0.3 mm
11:30 PM 32.8°F0.4°C 27.3°F-2.6°C 80% Calm Calm -- 29.71 in1006.1 mb - 0.00 in0.0 mm 0.01 in0.3 mm
11:40 PM 32.1°F0.1°C 26.6°F-3.0°C 80% Calm Calm -- 29.72 in1006.4 mb - 0.00 in0.0 mm 0.01 in0.3 mm
11:50 PM 31.3°F-0.4°C 25.8°F-3.4°C 80% Calm Calm -- 29.72 in1006.4 mb - 0.00 in0.0 mm 0.01 in0.3 mm